createdAt,value
2023-02-09T00:01:08.530Z,11.93
2023-02-09T00:03:36.929Z,8.80
2023-02-09T00:06:04.398Z,9.30
2023-02-09T00:08:31.929Z,9.77
2023-02-09T00:11:00.243Z,10.17
2023-02-09T00:13:27.767Z,11.33
2023-02-09T00:15:56.072Z,12.60
2023-02-09T00:18:23.665Z,11.30
2023-02-09T00:21:06.413Z,9.60
2023-02-09T00:23:33.968Z,8.43
2023-02-09T00:26:01.598Z,7.97
2023-02-09T00:28:29.073Z,8.07
2023-02-09T00:30:56.641Z,8.43
2023-02-09T00:33:24.140Z,8.20
2023-02-09T00:35:51.673Z,8.60
2023-02-09T00:38:19.994Z,8.73
2023-02-09T00:40:47.518Z,8.33
2023-02-09T00:43:15.054Z,8.83
2023-02-09T00:45:42.703Z,9.03
2023-02-09T00:48:10.924Z,11.80
2023-02-09T00:50:38.475Z,17.13
2023-02-09T00:53:06.022Z,19.70
2023-02-09T00:55:34.340Z,19.03
2023-02-09T00:58:01.885Z,24.73
2023-02-09T01:00:29.462Z,24.10
2023-02-09T01:02:57.003Z,19.23
2023-02-09T01:05:24.523Z,17.90
2023-02-09T01:07:53.088Z,17.20
2023-02-09T01:10:20.586Z,14.37
2023-02-09T01:12:48.120Z,14.40
2023-02-09T01:15:16.726Z,11.53
2023-02-09T01:17:44.280Z,11.57
2023-02-09T01:20:11.961Z,11.20
2023-02-09T01:22:39.545Z,9.23
2023-02-09T01:25:07.119Z,7.70
2023-02-09T01:27:34.676Z,7.50
2023-02-09T01:30:02.279Z,10.33
2023-02-09T01:32:30.589Z,10.17
2023-02-09T01:34:58.113Z,8.00
2023-02-09T01:37:25.659Z,7.30
2023-02-09T01:39:53.996Z,6.67
2023-02-09T01:42:21.534Z,7.70
2023-02-09T01:44:59.040Z,7.43
2023-02-09T01:47:26.595Z,7.57
2023-02-09T01:49:54.115Z,7.10
2023-02-09T01:52:22.450Z,7.37
2023-02-09T01:54:56.136Z,7.20
2023-02-09T01:57:23.663Z,7.33
2023-02-09T01:59:51.235Z,6.87
2023-02-09T02:02:18.794Z,7.30
2023-02-09T02:04:47.057Z,7.30
2023-02-09T02:07:17.336Z,7.90
2023-02-09T02:09:44.869Z,6.93
2023-02-09T02:12:12.394Z,7.67
2023-02-09T02:14:39.969Z,7.47
2023-02-09T02:17:28.392Z,7.93
2023-02-09T02:20:14.576Z,7.30
2023-02-09T02:23:01.163Z,7.80
2023-02-09T02:25:47.118Z,7.33
2023-02-09T02:28:38.764Z,8.23
2023-02-09T02:31:09.621Z,10.10
2023-02-09T02:33:43.792Z,9.03
2023-02-09T02:36:29.404Z,7.63
2023-02-09T02:39:08.300Z,7.27
2023-02-09T02:41:38.315Z,7.83
2023-02-09T02:44:08.553Z,8.17
2023-02-09T02:46:53.878Z,8.70
2023-02-09T02:49:31.225Z,8.37
2023-02-09T02:51:58.797Z,7.73
2023-02-09T02:54:26.321Z,10.33
2023-02-09T02:56:53.898Z,10.30
2023-02-09T02:59:24.191Z,8.03
2023-02-09T03:02:03.443Z,8.50
2023-02-09T03:04:30.996Z,7.43
2023-02-09T03:06:58.550Z,7.47
2023-02-09T03:09:26.097Z,7.90
2023-02-09T03:11:53.700Z,7.20
2023-02-09T03:14:29.918Z,6.90
2023-02-09T03:17:27.877Z,7.17
2023-02-09T03:19:58.917Z,6.77
2023-02-09T03:22:29.909Z,7.33
2023-02-09T03:24:57.425Z,7.37
2023-02-09T03:27:25.761Z,6.77
2023-02-09T03:29:53.259Z,7.00
2023-02-09T03:32:20.841Z,6.43
2023-02-09T03:34:48.380Z,7.00
2023-02-09T03:37:16.680Z,7.13
2023-02-09T03:39:44.290Z,7.77
2023-02-09T03:42:11.801Z,7.17
2023-02-09T03:44:39.350Z,7.80
2023-02-09T03:47:06.928Z,8.00
2023-02-09T03:49:34.512Z,7.03
2023-02-09T03:52:02.062Z,7.33
2023-02-09T03:54:29.650Z,10.27
2023-02-09T03:56:57.198Z,8.50
2023-02-09T03:59:27.381Z,9.97
2023-02-09T04:01:54.939Z,8.23
2023-02-09T04:04:22.474Z,8.67
2023-02-09T04:06:49.998Z,7.27
2023-02-09T04:09:17.565Z,8.10
2023-02-09T04:11:45.866Z,7.60
2023-02-09T04:14:13.403Z,7.40
2023-02-09T04:16:40.944Z,7.30
2023-02-09T04:19:08.480Z,8.07
2023-02-09T04:21:36.151Z,8.13
2023-02-09T04:24:03.670Z,7.07
2023-02-09T04:26:31.202Z,6.83
2023-02-09T04:28:59.508Z,7.13
2023-02-09T04:31:27.234Z,10.80
2023-02-09T04:33:54.615Z,9.23
2023-02-09T04:36:22.141Z,8.00
2023-02-09T04:38:49.717Z,8.20
2023-02-09T04:41:18.030Z,10.37
2023-02-09T04:43:48.283Z,11.55
2023-02-09T04:46:15.958Z,8.30
2023-02-09T04:48:44.182Z,8.13
2023-02-09T04:51:11.709Z,8.27
2023-02-09T04:53:40.532Z,7.93
2023-02-09T04:56:08.052Z,7.97
2023-02-09T04:58:54.521Z,7.73
2023-02-09T05:01:22.110Z,8.27
2023-02-09T05:03:49.613Z,8.07
2023-02-09T05:06:17.190Z,7.27
2023-02-09T05:08:44.734Z,8.20
2023-02-09T05:11:12.287Z,8.03
2023-02-09T05:13:40.163Z,8.77
2023-02-09T05:16:07.770Z,8.13
2023-02-09T05:18:35.254Z,14.67
2023-02-09T05:21:02.839Z,14.87
2023-02-09T05:23:30.377Z,12.87
2023-02-09T05:25:57.911Z,12.53
2023-02-09T05:28:25.550Z,10.83
2023-02-09T05:30:53.132Z,9.00
2023-02-09T05:33:23.249Z,9.07
2023-02-09T05:35:51.876Z,7.87
2023-02-09T05:38:19.412Z,9.60
2023-02-09T05:40:48.061Z,8.60
2023-02-09T05:43:15.259Z,8.37
2023-02-09T05:45:42.814Z,8.83
2023-02-09T05:48:11.086Z,7.83
2023-02-09T05:50:38.663Z,7.37
2023-02-09T05:53:06.194Z,8.10
2023-02-09T05:55:34.509Z,7.50
2023-02-09T05:58:02.097Z,7.60
2023-02-09T06:00:29.629Z,8.03
2023-02-09T06:02:57.190Z,11.27
2023-02-09T06:05:24.739Z,8.17
2023-02-09T06:07:53.259Z,8.97
2023-02-09T06:10:20.836Z,8.43
2023-02-09T06:12:48.406Z,7.50
2023-02-09T06:17:52.715Z,8.50
2023-02-09T06:20:20.234Z,10.77
2023-02-09T06:22:47.780Z,12.48
2023-02-09T06:25:15.746Z,10.40
2023-02-09T06:27:43.293Z,9.83
2023-02-09T06:30:11.822Z,14.33
2023-02-09T06:32:39.408Z,14.33
2023-02-09T06:35:06.955Z,12.90
2023-02-09T06:37:34.481Z,12.17
2023-02-09T06:40:02.065Z,9.43
2023-02-09T06:42:29.598Z,9.57
2023-02-09T06:44:57.206Z,13.20
2023-02-09T06:47:24.766Z,11.37
2023-02-09T06:49:53.068Z,13.07
2023-02-09T06:52:20.614Z,10.70
2023-02-09T06:54:48.966Z,9.40
2023-02-09T06:57:16.520Z,9.20
2023-02-09T06:59:44.057Z,12.17
2023-02-09T07:02:11.639Z,12.82
2023-02-09T07:04:39.182Z,9.73
2023-02-09T07:07:06.718Z,8.83
2023-02-09T07:09:34.302Z,9.07
2023-02-09T07:12:01.825Z,9.40
2023-02-09T07:14:29.352Z,8.23
2023-02-09T07:16:57.675Z,8.40
2023-02-09T07:19:25.208Z,7.70
2023-02-09T07:21:52.734Z,7.33
2023-02-09T07:24:20.357Z,8.83
2023-02-09T07:26:47.900Z,11.37
2023-02-09T07:29:15.449Z,11.73
2023-02-09T07:31:43.180Z,11.97
2023-02-09T07:34:10.554Z,8.97
2023-02-09T07:36:38.866Z,8.77
2023-02-09T07:39:06.439Z,8.27
2023-02-09T07:41:33.963Z,8.77
2023-02-09T07:44:01.487Z,8.57
2023-02-09T07:46:29.145Z,10.43
2023-02-09T07:48:56.626Z,10.03
2023-02-09T07:51:27.658Z,10.80
2023-02-09T07:53:55.208Z,9.50
2023-02-09T07:56:23.503Z,10.10
2023-02-09T07:58:51.789Z,9.10
2023-02-09T08:01:19.400Z,12.63
2023-02-09T08:03:46.939Z,13.83
2023-02-09T08:06:41.967Z,10.43
2023-02-09T08:09:03.477Z,10.37
2023-02-09T08:11:44.635Z,10.20
2023-02-09T08:14:13.920Z,10.53
2023-02-09T08:16:41.470Z,11.37
2023-02-09T08:19:09.055Z,10.23
2023-02-09T08:21:36.600Z,10.20
2023-02-09T08:24:04.125Z,10.27
2023-02-09T08:26:32.477Z,10.80
2023-02-09T08:29:00.047Z,10.20
2023-02-09T08:31:27.622Z,14.13
2023-02-09T08:33:55.935Z,10.97
2023-02-09T08:36:23.462Z,11.47
2023-02-09T08:38:51.755Z,10.43
2023-02-09T08:41:19.330Z,10.83
2023-02-09T08:43:50.012Z,10.90
2023-02-09T08:46:17.648Z,9.70
2023-02-09T08:48:45.126Z,10.20
2023-02-09T08:51:12.669Z,9.53
2023-02-09T08:53:40.218Z,10.07
2023-02-09T08:56:07.781Z,9.60
2023-02-09T08:58:35.328Z,10.47
2023-02-09T09:01:02.950Z,10.07
2023-02-09T09:03:30.514Z,10.40
2023-02-09T09:05:58.009Z,11.00
2023-02-09T09:08:25.535Z,9.77
2023-02-09T09:10:53.109Z,9.87
2023-02-09T09:13:20.692Z,12.30
2023-02-09T09:15:48.601Z,12.30
2023-02-09T09:18:15.812Z,11.47
2023-02-09T09:20:43.360Z,11.57
2023-02-09T09:23:10.913Z,11.20
2023-02-09T09:25:41.420Z,11.90
2023-02-09T09:28:09.035Z,11.13
2023-02-09T09:30:37.274Z,10.47
2023-02-09T09:33:04.921Z,10.30
2023-02-09T09:35:32.398Z,11.87
2023-02-09T09:37:59.924Z,11.57
2023-02-09T09:40:28.262Z,11.47
2023-02-09T09:42:55.809Z,11.33
2023-02-09T09:45:23.353Z,12.17
2023-02-09T09:47:51.212Z,11.77
2023-02-09T09:50:18.752Z,11.63
2023-02-09T09:52:47.050Z,10.90
2023-02-09T09:55:14.616Z,12.17
2023-02-09T09:57:45.090Z,12.40
2023-02-09T10:00:18.641Z,12.23
2023-02-09T10:02:46.501Z,11.43
2023-02-09T10:05:14.029Z,11.93
2023-02-09T10:07:42.329Z,12.30
2023-02-09T10:10:13.001Z,13.03
2023-02-09T10:12:40.555Z,12.20
2023-02-09T10:15:29.224Z,12.07
2023-02-09T10:17:56.755Z,12.60
2023-02-09T10:20:42.382Z,15.50
2023-02-09T10:23:16.922Z,14.53
2023-02-09T10:26:03.633Z,14.63
2023-02-09T10:28:31.979Z,13.10
2023-02-09T10:30:59.537Z,13.37
2023-02-09T10:33:27.011Z,12.97
2023-02-09T10:35:55.314Z,12.80
2023-02-09T10:38:22.838Z,12.60
2023-02-09T10:40:51.176Z,12.93
2023-02-09T10:43:21.389Z,12.90
2023-02-09T10:45:49.227Z,12.53
2023-02-09T10:48:19.256Z,12.90
2023-02-09T10:50:58.541Z,13.17
2023-02-09T10:53:37.838Z,12.30
2023-02-09T10:56:05.375Z,12.70
2023-02-09T10:58:35.636Z,12.73
2023-02-09T11:01:11.990Z,13.23
2023-02-09T11:03:39.546Z,13.07
2023-02-09T11:06:15.984Z,13.03
2023-02-09T11:08:46.339Z,13.57
2023-02-09T11:11:19.691Z,13.07
2023-02-09T11:13:48.044Z,13.03
2023-02-09T11:16:53.064Z,13.07
2023-02-09T11:19:20.726Z,17.33
2023-02-09T11:22:03.244Z,15.27
2023-02-09T11:24:36.768Z,13.80
2023-02-09T11:27:05.060Z,13.90
2023-02-09T11:29:33.354Z,14.43
2023-02-09T11:32:03.833Z,13.93
2023-02-09T11:34:35.403Z,12.67
2023-02-09T11:37:24.250Z,14.93
2023-02-09T11:39:57.534Z,13.87
2023-02-09T11:42:43.101Z,12.53
2023-02-09T11:45:10.654Z,13.20
2023-02-09T11:47:50.216Z,12.43
2023-02-09T11:50:20.736Z,13.53
2023-02-09T11:52:48.259Z,12.70
2023-02-09T11:55:15.842Z,13.20
2023-02-09T11:57:46.139Z,13.13
2023-02-09T12:00:16.452Z,13.43
2023-02-09T12:02:49.819Z,12.90
2023-02-09T12:05:17.333Z,13.70
2023-02-09T12:08:05.893Z,14.67
2023-02-09T12:10:36.378Z,13.03
2023-02-09T12:13:09.455Z,13.23
2023-02-09T12:15:46.384Z,13.10
2023-02-09T12:18:19.411Z,12.27
2023-02-09T12:20:58.935Z,12.77
2023-02-09T12:23:41.488Z,12.23
2023-02-09T12:26:18.032Z,15.52
2023-02-09T12:28:48.956Z,14.20
2023-02-09T12:31:22.050Z,12.80
2023-02-09T12:33:50.254Z,13.57
2023-02-09T12:36:29.790Z,12.37
2023-02-09T12:39:23.703Z,12.63
2023-02-09T12:41:49.332Z,11.43
2023-02-09T12:44:16.845Z,11.90
2023-02-09T12:46:47.173Z,12.87
2023-02-09T12:49:14.746Z,11.13
2023-02-09T12:51:51.259Z,12.27
2023-02-09T12:54:42.949Z,11.90
2023-02-09T12:57:16.812Z,10.73
2023-02-09T12:59:53.278Z,10.83
2023-02-09T13:02:26.833Z,11.63
2023-02-09T13:05:18.688Z,11.00
2023-02-09T13:07:52.287Z,12.10
2023-02-09T13:10:44.194Z,13.18
2023-02-09T13:13:11.756Z,11.87
2023-02-09T13:15:48.583Z,12.03
2023-02-09T13:18:34.347Z,11.93
2023-02-09T13:21:04.820Z,10.77
2023-02-09T13:23:38.367Z,10.53
2023-02-09T13:26:23.944Z,11.13
2023-02-09T13:29:18.417Z,12.35
2023-02-09T13:31:34.185Z,11.53
2023-02-09T13:34:01.658Z,13.32
2023-02-09T13:36:43.917Z,11.70
2023-02-09T13:39:23.838Z,10.70
2023-02-09T13:41:51.456Z,11.00
2023-02-09T13:44:28.494Z,10.87
2023-02-09T13:46:59.628Z,11.57
2023-02-09T13:49:27.168Z,10.53
2023-02-09T13:52:10.230Z,13.13
2023-02-09T13:54:37.734Z,11.13
2023-02-09T13:57:05.241Z,12.25
2023-02-09T13:59:33.594Z,12.30
2023-02-09T14:02:01.163Z,11.13
2023-02-09T14:04:28.684Z,12.88
2023-02-09T14:06:59.201Z,11.63
2023-02-09T14:09:26.738Z,10.97
2023-02-09T14:11:55.049Z,10.30
2023-02-09T14:14:25.583Z,10.03
2023-02-09T14:17:24.351Z,10.80
2023-02-09T14:19:39.494Z,12.32
2023-02-09T14:22:06.972Z,10.70
2023-02-09T14:24:40.461Z,10.20
2023-02-09T14:27:20.748Z,10.90
2023-02-09T14:29:48.292Z,10.37
2023-02-09T14:32:34.201Z,9.60
2023-02-09T14:35:25.809Z,11.33
2023-02-09T14:37:53.401Z,10.70
2023-02-09T14:40:36.248Z,10.90
2023-02-09T14:43:07.386Z,13.38
2023-02-09T14:45:41.404Z,11.97
2023-02-09T14:48:21.830Z,13.03
2023-02-09T14:50:49.370Z,12.13
2023-02-09T14:53:16.908Z,10.83
2023-02-09T14:55:44.899Z,10.90
2023-02-09T14:58:12.025Z,10.90
2023-02-09T15:00:39.560Z,10.90
2023-02-09T15:03:07.982Z,10.70
2023-02-09T15:05:35.498Z,11.47
2023-02-09T15:08:05.713Z,11.43
2023-02-09T15:10:31.371Z,10.93
2023-02-09T15:12:58.908Z,11.47
2023-02-09T15:15:26.488Z,11.67
2023-02-09T15:17:54.006Z,11.93
2023-02-09T15:20:22.320Z,10.77
2023-02-09T15:22:49.846Z,11.37
2023-02-09T15:25:18.204Z,11.27
2023-02-09T15:27:51.209Z,11.10
2023-02-09T15:30:13.367Z,11.30
2023-02-09T15:32:40.942Z,11.87
2023-02-09T15:35:08.609Z,10.33
2023-02-09T15:37:36.130Z,11.33
2023-02-09T15:40:12.877Z,11.33
2023-02-09T15:43:01.304Z,10.70
2023-02-09T15:45:46.998Z,12.27
2023-02-09T15:48:14.547Z,12.00
2023-02-09T15:50:42.097Z,11.27
2023-02-09T15:53:09.710Z,12.00
2023-02-09T15:55:37.221Z,11.80
2023-02-09T15:58:04.750Z,11.73
2023-02-09T16:00:32.358Z,11.67
2023-02-09T16:03:00.017Z,10.93
2023-02-09T16:05:27.423Z,11.17
2023-02-09T16:07:54.989Z,11.73
2023-02-09T16:10:28.612Z,10.97
2023-02-09T16:12:56.152Z,11.63
2023-02-09T16:15:23.751Z,11.67
2023-02-09T16:17:51.257Z,12.30
2023-02-09T16:20:18.781Z,11.33
2023-02-09T16:22:46.328Z,10.97
2023-02-09T16:25:19.807Z,10.77
2023-02-09T16:27:47.354Z,10.73
2023-02-09T16:30:14.940Z,10.57
2023-02-09T16:32:42.482Z,10.57
2023-02-09T16:35:16.655Z,11.03
2023-02-09T16:37:37.885Z,11.13
2023-02-09T16:40:17.389Z,10.63
2023-02-09T16:42:48.343Z,10.00
2023-02-09T16:45:13.255Z,10.47
2023-02-09T16:47:40.831Z,10.57
2023-02-09T16:50:14.374Z,10.50
2023-02-09T16:52:41.905Z,10.53
2023-02-09T16:55:11.941Z,10.97
2023-02-09T16:57:39.542Z,12.68
2023-02-09T17:00:07.297Z,12.50
2023-02-09T17:02:44.412Z,11.80
2023-02-09T17:05:27.080Z,12.03
2023-02-09T17:07:55.469Z,14.17
2023-02-09T17:10:22.957Z,17.20
2023-02-09T17:12:52.595Z,14.43
2023-02-09T17:15:29.472Z,15.77
2023-02-09T17:17:47.152Z,15.07
2023-02-09T17:20:17.395Z,15.00
2023-02-09T17:22:45.373Z,13.93
2023-02-09T17:25:15.634Z,12.93
2023-02-09T17:27:43.148Z,12.97
2023-02-09T17:30:10.966Z,16.92
2023-02-09T17:32:39.262Z,13.87
2023-02-09T17:35:09.635Z,15.77
2023-02-09T17:37:37.572Z,14.40
2023-02-09T17:40:05.186Z,15.37
2023-02-09T17:42:32.745Z,13.47
2023-02-09T17:45:00.428Z,18.83
2023-02-09T17:47:27.919Z,15.47
2023-02-09T17:49:55.469Z,16.92
2023-02-09T17:52:23.053Z,14.40
2023-02-09T17:54:50.601Z,14.77
2023-02-09T17:57:18.177Z,13.27
2023-02-09T17:59:45.752Z,13.83
2023-02-09T18:02:15.982Z,14.17
2023-02-09T18:04:43.518Z,13.73
2023-02-09T18:07:11.101Z,14.50
2023-02-09T18:09:38.647Z,13.67
2023-02-09T18:12:08.937Z,14.33
2023-02-09T18:14:36.509Z,15.73
2023-02-09T18:17:04.094Z,16.67
2023-02-09T18:19:31.646Z,20.67
2023-02-09T18:21:59.259Z,16.80
2023-02-09T18:24:26.762Z,14.70
2023-02-09T18:26:54.278Z,17.37
2023-02-09T18:29:21.860Z,15.80
2023-02-09T18:31:49.414Z,14.47
2023-02-09T18:34:16.952Z,15.90
2023-02-09T18:36:44.535Z,16.23
2023-02-09T18:39:12.060Z,15.47
2023-02-09T18:41:39.604Z,18.00
2023-02-09T18:44:08.016Z,19.93
2023-02-09T18:46:35.587Z,17.47
2023-02-09T18:49:03.728Z,16.40
2023-02-09T18:51:31.458Z,15.00
2023-02-09T18:53:58.988Z,14.60
2023-02-09T18:56:26.521Z,16.35
2023-02-09T18:58:54.163Z,15.87
2023-02-09T19:01:21.711Z,16.77
2023-02-09T19:03:52.326Z,16.37
2023-02-09T19:06:19.913Z,20.87
2023-02-09T19:08:47.446Z,17.27
2023-02-09T19:11:14.984Z,16.80
2023-02-09T19:13:42.845Z,20.77
2023-02-09T19:16:10.438Z,22.00
2023-02-09T19:18:37.925Z,20.83
2023-02-09T19:21:06.761Z,21.50
2023-02-09T19:23:33.358Z,16.90
2023-02-09T19:26:00.913Z,19.57
2023-02-09T19:28:29.322Z,18.03
2023-02-09T19:30:56.840Z,17.07
2023-02-09T19:33:24.352Z,16.70
2023-02-09T19:35:57.635Z,21.25
2023-02-09T19:38:25.245Z,18.70
2023-02-09T19:41:05.085Z,16.03
2023-02-09T19:43:21.339Z,14.43
2023-02-09T19:45:48.831Z,14.97
2023-02-09T19:48:16.157Z,18.30
2023-02-09T19:50:43.746Z,19.95
2023-02-09T19:53:11.296Z,16.17
2023-02-09T19:55:38.811Z,15.63
2023-02-09T19:58:06.776Z,18.30
2023-02-09T20:00:34.305Z,16.33
2023-02-09T20:03:02.662Z,15.90
2023-02-09T20:05:30.176Z,15.67
2023-02-09T20:07:57.696Z,16.07
2023-02-09T20:10:26.012Z,15.10
2023-02-09T20:12:53.582Z,14.00
2023-02-09T20:15:21.125Z,15.50
2023-02-09T20:17:48.659Z,14.67
2023-02-09T20:20:16.998Z,16.07
2023-02-09T20:22:44.526Z,15.30
2023-02-09T20:25:12.101Z,15.27
2023-02-09T20:27:39.672Z,15.93
2023-02-09T20:30:07.439Z,15.17
2023-02-09T20:32:34.952Z,15.00
2023-02-09T20:35:02.526Z,19.23
2023-02-09T20:37:30.072Z,17.27
2023-02-09T20:39:57.587Z,16.20
2023-02-09T20:42:43.315Z,16.17
2023-02-09T20:45:28.863Z,16.53
2023-02-09T20:47:56.432Z,16.73
2023-02-09T20:50:24.727Z,15.53
2023-02-09T20:52:52.271Z,15.83
2023-02-09T20:55:20.584Z,16.17
2023-02-09T20:57:48.108Z,17.20
2023-02-09T21:00:15.764Z,13.83
2023-02-09T21:02:43.417Z,15.93
2023-02-09T21:05:11.663Z,14.30
2023-02-09T21:07:39.204Z,14.20
2023-02-09T21:10:06.800Z,17.70
2023-02-09T21:12:34.330Z,15.03
2023-02-09T21:15:01.857Z,17.67
2023-02-09T21:17:29.434Z,15.30
2023-02-09T21:19:56.963Z,14.80
2023-02-09T21:22:24.488Z,15.37
2023-02-09T21:24:52.063Z,14.77
2023-02-09T21:27:19.639Z,15.10
2023-02-09T21:29:47.181Z,14.60
2023-02-09T21:32:14.759Z,14.57
2023-02-09T21:34:42.297Z,19.47
2023-02-09T21:37:10.628Z,16.67
2023-02-09T21:39:38.189Z,15.80
2023-02-09T21:42:23.859Z,15.60
2023-02-09T21:44:51.457Z,15.67
2023-02-09T21:47:18.985Z,14.60
2023-02-09T21:49:46.515Z,19.90
2023-02-09T21:52:15.121Z,16.50
2023-02-09T21:54:42.657Z,15.80
2023-02-09T21:57:10.211Z,16.47
2023-02-09T21:59:38.097Z,15.57
2023-02-09T22:02:05.623Z,15.30
2023-02-09T22:04:33.976Z,16.30
2023-02-09T22:07:01.538Z,15.67
2023-02-09T22:09:29.068Z,16.20
2023-02-09T22:11:56.606Z,14.97
2023-02-09T22:14:24.199Z,15.33
2023-02-09T22:16:51.810Z,17.40
2023-02-09T22:19:19.298Z,17.23
2023-02-09T22:21:46.894Z,16.73
2023-02-09T22:24:14.425Z,15.37
2023-02-09T22:26:41.971Z,19.58
2023-02-09T22:29:09.568Z,16.13
2023-02-09T22:31:37.119Z,16.60
2023-02-09T22:34:04.652Z,20.70
2023-02-09T22:36:32.333Z,20.50
2023-02-09T22:38:59.754Z,16.43
2023-02-09T22:41:27.288Z,15.90
2023-02-09T22:43:55.993Z,15.60
2023-02-09T22:46:23.601Z,15.03
2023-02-09T22:48:53.563Z,15.27
2023-02-09T22:51:21.162Z,14.33
2023-02-09T22:53:48.687Z,14.77
2023-02-09T22:56:16.216Z,15.83
2023-02-09T22:58:44.568Z,15.07
2023-02-09T23:01:12.126Z,14.37
2023-02-09T23:03:39.688Z,14.93
2023-02-09T23:06:07.441Z,13.73
2023-02-09T23:08:34.991Z,14.77
2023-02-09T23:11:05.535Z,14.80
2023-02-09T23:13:33.104Z,14.77
2023-02-09T23:16:15.462Z,14.63
2023-02-09T23:18:51.701Z,18.65
2023-02-09T23:21:19.294Z,15.10
2023-02-09T23:23:46.775Z,14.67
2023-02-09T23:26:14.345Z,15.43
2023-02-09T23:28:41.895Z,19.13
2023-02-09T23:31:09.460Z,15.27
2023-02-09T23:33:37.009Z,14.63
2023-02-09T23:36:07.944Z,15.53
2023-02-09T23:38:35.514Z,15.23
2023-02-09T23:41:05.944Z,14.67
2023-02-09T23:43:33.489Z,14.47
2023-02-09T23:46:01.051Z,14.33
2023-02-09T23:48:28.627Z,16.03
2023-02-09T23:51:01.761Z,14.97
2023-02-09T23:53:30.050Z,15.77
2023-02-09T23:55:58.235Z,14.50
2023-02-09T23:58:25.791Z,15.90
